AIRPORT METAR

METAR FOR LSZS
ADDS - METARS form results

(0900 UTC 19 September 2021)
Data provider http://aviationweather.gov/metar/data/
 
METAR text: LSZS 190850Z 02002KT 9999 SCT025 BKN065 10/07 Q1015 RMK G TL170
Conditions at: LSZS (SAMEDAN , CH) observed 0850 UTC 19 September 2021
Temperature: 10.0°C (50°F)
Dewpoint: 7.0°C (45°F) [RH = 82%]
Pressure (altimeter): 29.97 inches Hg (1015.0 mb)
Winds: from the NNE (20 degrees) at 2 MPH (2 knots; 1.0 m/s)
Visibility: 6 or more miles (10+ km)
Ceiling: 6500 feet AGL
Clouds: scattered clouds at 2500 feet AGL
broken clouds at 6500 feet AGL
Weather: no significant weather observed at this time

METAR text: LSZS 190820Z VRB02KT 9999 SCT040 BKN075 09/06 Q1015 RMK F TL170
Conditions at: LSZS (SAMEDAN , CH) observed 0820 UTC 19 September 2021
Temperature: 9.0°C (48°F)
Dewpoint: 6.0°C (43°F) [RH = 81%]
Pressure (altimeter): 29.97 inches Hg (1015.0 mb)
Winds: variable direction winds at 2 MPH (2 knots; 1.0 m/s)
Visibility: 6 or more miles (10+ km)
Ceiling: 7500 feet AGL
Clouds: scattered clouds at 4000 feet AGL
broken clouds at 7500 feet AGL
Weather: no significant weather observed at this time

Forecast for: LSZS (SAMEDAN , CH)
Text: TAF LSZS 190825Z 1909/1918 VRB02KT 9999 FEW040 BKN075 TX12/1913Z
Forecast period: 0900 to 1800 UTC 19 September 2021
Forecast type: FROM: standard forecast or significant change
Winds: variable direction winds at 2 MPH (2 knots; 1.0 m/s)
Visibility: 6 or more miles (10+ km)
Ceiling: 7500 feet AGL
Clouds: few clouds at 4000 feet AGL
broken clouds at 7500 feet AGL
Weather: no significant weather forecast for this period
Text: BECMG 1909/1911 RA
Forecast period: 0900 to 1800 UTC 19 September 2021
Forecast type: BECOMING: Conditions expected to become as follows by 1100 UTC 19 September 2021
Winds: variable direction winds at 2 MPH (2 knots; 1.0 m/s)
Visibility: 6 or more miles (10+ km)
Ceiling: 7500 feet AGL
Clouds: few clouds at 4000 feet AGL
broken clouds at 7500 feet AGL
Weather: RA  (moderate rain)
Text: PROB30
Forecast period: 1100 to 1600 UTC 19 September 2021
Forecast type: TEMPORARY: The following changes expected for less than half the time period
Visibility: missing
Ceiling: at least 12,000 feet AGL
Clouds: scattered clouds at 4000 feet AGL
Weather: TSRA  (rain associated with thunderstorm(s))

AIRPORT MAP

 RUNWAY INFORMATION
Runway 03 Runway length 5905 ft Runway width 130 ft
Runway elevation 5600 ft Runway displaced threshold 0 ft Runway heading 29
Runway 21 Runway length 5905 ft Runway width 130 ft
Runway elevation 5574 ft Runway displaced threshold 360 ft Runway heading 209

 AIRPORT FREQUENCIES
Type A/G Name GLIDER Frequency 123.67 MHZ
Type ATIS Name ATIS Frequency 136.6 MHZ
Type GND Name GND Frequency 121.6 MHZ
Type INFO Name INFO Frequency 138.05 MHZ
Type TWR Name TWR Frequency 135.325 MHZ

 AIRPORT NEAR NAVIGATION AIDS



© 2020 - Royal Sky Service, All Right Reserved.